Time;durP1;ratioP1;P1;durP2;ratioP2;P2;SDS_P1;SDS_P2;PMS_P1;PMS_P2;Temp;Humidity;BMP_temperature;BMP_pressure;BME280_temperature;BME280_humidity;BME280_pressure;Samples;Min_cycle;Max_cycle;Signal;HPM_P1;HPM_P2
2022/11/17 00:01:38;;;;;;;19.77;13.50;;;8.50;99.90;;;;;;5036148;28;20401;-80
2022/11/17 00:04:04;;;;;;;19.55;12.57;;;7.50;99.90;;;;;;5025341;28;20107;-80
2022/11/17 00:06:30;;;;;;;19.17;12.50;;;8.50;99.90;;;;;;5032226;28;20044;-81
2022/11/17 00:08:55;;;;;;;22.05;12.85;;;8.50;99.90;;;;;;5033429;28;20041;-80
2022/11/17 00:11:21;;;;;;;19.92;12.45;;;8.60;99.90;;;;;;5033665;28;20076;-81
2022/11/17 00:16:30;;;;;;;17.50;12.38;;;8.50;99.90;;;;;;5038472;28;20115;-81
2022/11/17 00:21:40;;;;;;;19.63;12.77;;;8.80;99.90;;;;;;5023729;28;20136;-80
2022/11/17 00:24:06;;;;;;;18.60;12.85;;;8.50;99.90;;;;;;5046662;28;20465;-80
2022/11/17 00:26:33;;;;;;;16.60;10.68;;;8.50;99.90;;;;;;5026742;28;20045;-80
2022/11/17 00:29:01;;;;;;;17.98;12.50;;;8.60;99.90;;;;;;5054481;28;20041;-81
2022/11/17 00:34:18;;;;;;;17.17;12.02;;;8.50;99.90;;;;;;5030147;28;20037;-80
2022/11/17 00:36:48;;;;;;;13.50;11.52;;;8.50;99.90;;;;;;5033137;28;20041;-80
2022/11/17 00:39:16;;;;;;;15.60;12.23;;;8.50;99.90;;;;;;5053956;28;20063;-80
2022/11/17 00:41:41;;;;;;;18.42;12.10;;;9.10;99.90;;;;;;5035486;28;20042;-80
2022/11/17 00:44:07;;;;;;;18.75;11.73;;;8.70;99.90;;;;;;5036111;28;20051;-80
2022/11/17 00:46:34;;;;;;;18.13;11.65;;;8.50;99.90;;;;;;5035693;28;20037;-80
2022/11/17 00:49:00;;;;;;;14.35;10.77;;;8.50;99.90;;;;;;5035901;28;20478;-80
2022/11/17 00:51:25;;;;;;;16.98;11.25;;;8.50;99.90;;;;;;5037891;28;20081;-80
2022/11/17 00:53:51;;;;;;;15.80;11.20;;;8.50;99.90;;;;;;5036143;28;20151;-80
2022/11/17 00:56:17;;;;;;;15.70;11.13;;;8.50;99.90;;;;;;5055382;28;20125;-80
2022/11/17 00:58:43;;;;;;;13.75;10.63;;;8.60;99.90;;;;;;5055751;28;20041;-80
2022/11/17 01:01:09;;;;;;;13.80;10.25;;;8.60;99.90;;;;;;5055328;28;20067;-80
2022/11/17 01:03:36;;;;;;;14.10;10.18;;;8.50;99.90;;;;;;5032732;28;20091;-80
2022/11/17 01:06:03;;;;;;;17.55;10.20;;;8.50;99.90;;;;;;5035344;28;20107;-81
2022/11/17 01:08:29;;;;;;;12.85;9.80;;;8.50;99.90;;;;;;5021596;28;20056;-80
2022/11/17 01:10:55;;;;;;;13.65;10.38;;;8.50;99.90;;;;;;5037356;28;20072;-80
2022/11/17 01:13:21;;;;;;;13.25;10.20;;;9.50;99.90;;;;;;5032544;28;20084;-80
2022/11/17 01:15:47;;;;;;;14.45;9.60;;;8.50;99.90;;;;;;5036665;28;20413;-81
2022/11/17 01:18:12;;;;;;;14.15;10.70;;;8.50;99.90;;;;;;5018827;28;20033;-81
2022/11/17 01:20:38;;;;;;;13.32;9.55;;;8.40;99.90;;;;;;5017812;28;20501;-80
2022/11/17 01:23:03;;;;;;;13.98;10.70;;;8.50;99.90;;;;;;5034898;28;20041;-80
2022/11/17 01:25:30;;;;;;;13.73;10.50;;;9.30;99.90;;;;;;5018147;28;20037;-80
2022/11/17 01:27:55;;;;;;;14.40;10.52;;;8.40;99.90;;;;;;5027710;28;20049;-80
2022/11/17 01:30:21;;;;;;;15.25;10.82;;;9.40;99.90;;;;;;5017179;28;20047;-81
2022/11/17 01:32:46;;;;;;;14.23;10.30;;;9.10;99.90;;;;;;5032523;28;20114;-81
2022/11/17 01:35:12;;;;;;;13.85;11.23;;;8.30;99.90;;;;;;5032297;28;20041;-80
2022/11/17 01:37:38;;;;;;;15.40;10.65;;;8.30;99.90;;;;;;5040159;28;20042;-80
2022/11/17 01:40:04;;;;;;;12.45;10.38;;;9.20;99.90;;;;;;5024318;28;20409;-80
2022/11/17 01:42:30;;;;;;;12.85;10.10;;;8.30;99.90;;;;;;5041665;28;20098;-80
2022/11/17 01:45:15;;;;;;;18.48;10.88;;;8.30;99.90;;;;;;5036630;28;20455;-80
2022/11/17 01:47:58;;;;;;;17.75;10.52;;;8.30;99.90;;;;;;5029179;28;20402;-80
2022/11/17 01:50:34;;;;;;;14.02;10.48;;;8.30;99.90;;;;;;5038098;28;20052;-80
2022/11/17 01:53:07;;;;;;;13.15;9.25;;;8.20;99.90;;;;;;5054576;28;20068;-80
2022/11/17 01:55:55;;;;;;;14.32;10.13;;;8.30;99.90;;;;;;5017837;28;20055;-80
2022/11/17 01:58:33;;;;;;;14.43;10.85;;;8.20;99.90;;;;;;5036260;28;20060;-80
2022/11/17 02:00:58;;;;;;;13.63;10.50;;;8.20;99.90;;;;;;5025911;28;20052;-81
2022/11/17 02:03:26;;;;;;;13.35;10.50;;;8.20;99.90;;;;;;5058256;28;20056;-80
2022/11/17 02:06:14;;;;;;;14.30;10.85;;;9.00;99.90;;;;;;5056260;28;20048;-80
2022/11/17 02:08:44;;;;;;;13.93;10.43;;;8.10;99.90;;;;;;5056206;28;20052;-80
2022/11/17 02:11:17;;;;;;;16.35;10.13;;;8.10;99.90;;;;;;5039565;28;20052;-80
2022/11/17 02:13:44;;;;;;;15.25;10.77;;;8.70;99.90;;;;;;5039414;28;20389;-80
2022/11/17 02:16:14;;;;;;;15.45;10.88;;;8.90;99.90;;;;;;5056474;28;20384;-80
2022/11/17 02:18:42;;;;;;;16.02;11.43;;;8.10;99.90;;;;;;5055931;28;20124;-80
2022/11/17 02:21:19;;;;;;;16.20;11.27;;;8.10;99.90;;;;;;5074390;28;20071;-80
2022/11/17 02:23:48;;;;;;;13.82;10.45;;;8.10;99.90;;;;;;5072723;28;20045;-80
2022/11/17 02:26:40;;;;;;;15.38;10.35;;;8.10;99.90;;;;;;5068175;28;20044;-80
2022/11/17 02:29:38;;;;;;;15.40;11.10;;;8.10;99.90;;;;;;5036895;28;20227;-80
2022/11/17 02:32:04;;;;;;;14.65;10.48;;;8.10;99.90;;;;;;5035306;28;20267;-80
2022/11/17 02:35:09;;;;;;;13.98;10.77;;;8.10;99.90;;;;;;5053887;28;20169;-80
2022/11/17 02:37:34;;;;;;;17.98;11.30;;;8.10;99.90;;;;;;5036270;28;20053;-80
2022/11/17 02:40:15;;;;;;;14.82;10.73;;;8.10;99.90;;;;;;5020510;28;20139;-80
2022/11/17 02:45:48;;;;;;;15.60;11.32;;;8.20;99.90;;;;;;5072930;28;20111;-80
2022/11/17 02:48:24;;;;;;;15.57;12.10;;;8.20;99.90;;;;;;5070443;28;20047;-80
2022/11/17 02:50:51;;;;;;;13.52;11.25;;;8.60;99.90;;;;;;5053666;28;20397;-80
2022/11/17 02:53:18;;;;;;;15.25;11.40;;;8.70;99.90;;;;;;5053198;28;20059;-80
2022/11/17 02:55:51;;;;;;;17.02;11.85;;;8.00;99.90;;;;;;5072164;28;20053;-81
2022/11/17 02:58:17;;;;;;;14.90;11.70;;;8.00;99.90;;;;;;5053993;28;20427;-81
2022/11/17 03:01:09;;;;;;;15.45;11.95;;;8.00;99.90;;;;;;5038047;28;20247;-80
2022/11/17 03:04:08;;;;;;;15.73;11.70;;;8.00;99.90;;;;;;5054074;28;20060;-80
2022/11/17 03:06:50;;;;;;;15.43;11.85;;;8.00;99.90;;;;;;5036494;28;20053;-81
2022/11/17 03:09:51;;;;;;;17.42;12.98;;;8.10;99.90;;;;;;5036591;28;20064;-81
2022/11/17 03:12:41;;;;;;;19.13;12.95;;;7.90;99.90;;;;;;4993192;28;20059;-80
2022/11/17 03:15:46;;;;;;;17.67;13.00;;;9.10;99.90;;;;;;5053744;28;20053;-81
2022/11/17 03:18:20;;;;;;;16.35;12.70;;;7.90;99.90;;;;;;5021031;28;20037;-80
2022/11/17 03:20:54;;;;;;;20.95;14.25;;;7.90;99.90;;;;;;5018435;28;20049;-80
2022/11/17 03:23:39;;;;;;;16.63;14.15;;;7.90;99.90;;;;;;5046171;28;20037;-81
2022/11/17 03:26:08;;;;;;;17.02;13.55;;;9.00;99.90;;;;;;5042818;28;20037;-80
2022/11/17 03:28:35;;;;;;;18.75;13.75;;;7.90;99.90;;;;;;5056601;28;20049;-80
2022/11/17 03:31:05;;;;;;;19.65;14.55;;;7.80;99.90;;;;;;5020960;28;20045;-80
2022/11/17 03:33:33;;;;;;;16.42;14.30;;;7.80;99.90;;;;;;5042775;28;20048;-80
2022/11/17 03:36:21;;;;;;;17.25;14.15;;;7.80;99.90;;;;;;5052777;28;20520;-80
2022/11/17 03:39:02;;;;;;;18.15;13.93;;;8.30;99.90;;;;;;5053605;28;20140;-80
2022/11/17 03:41:33;;;;;;;17.17;13.90;;;9.20;99.90;;;;;;5034818;28;20136;-80
2022/11/17 03:44:02;;;;;;;19.38;14.05;;;7.70;99.90;;;;;;5062727;28;20078;-80
2022/11/17 03:46:29;;;;;;;16.95;14.32;;;7.70;99.90;;;;;;5070008;28;20051;-80
2022/11/17 03:49:19;;;;;;;18.13;13.55;;;8.40;99.90;;;;;;5061140;28;20052;-80
2022/11/17 03:51:45;;;;;;;15.65;13.27;;;7.70;99.90;;;;;;5072474;28;20493;-80
2022/11/17 03:54:12;;;;;;;17.60;13.07;;;7.50;99.90;;;;;;5054387;28;20041;-80
2022/11/17 03:56:57;;;;;;;18.67;13.77;;;7.50;99.90;;;;;;5053085;28;20094;-80
2022/11/17 03:59:45;;;;;;;18.20;14.00;;;7.50;99.90;;;;;;5034169;28;20057;-80
2022/11/17 04:02:18;;;;;;;16.05;13.90;;;7.50;99.90;;;;;;5034304;28;20130;-80
2022/11/17 04:07:28;;;;;;;16.42;14.05;;;7.50;99.90;;;;;;5072721;28;20045;-80
2022/11/17 04:09:53;;;;;;;18.10;13.43;;;7.50;99.90;;;;;;5071974;28;20098;-80
2022/11/17 04:17:49;;;;;;;16.77;13.52;;;7.40;99.90;;;;;;5052385;28;20124;-81
2022/11/17 04:20:14;;;;;;;18.50;14.10;;;7.40;99.90;;;;;;5050307;28;20500;-80
2022/11/17 04:22:40;;;;;;;14.90;12.05;;;7.30;99.90;;;;;;5053809;28;20041;-81
2022/11/17 04:25:06;;;;;;;15.93;12.52;;;7.30;99.90;;;;;;5068070;28;20125;-81
2022/11/17 04:30:16;;;;;;;15.77;13.65;;;7.20;99.90;;;;;;5039738;28;20048;-81
2022/11/17 04:32:41;;;;;;;14.20;11.80;;;7.20;99.90;;;;;;5057230;28;20440;-81
2022/11/17 04:35:07;;;;;;;16.15;13.02;;;7.20;99.90;;;;;;5053704;28;20060;-81
2022/11/17 04:37:33;;;;;;;16.40;12.88;;;7.30;99.90;;;;;;5052209;28;20065;-81
2022/11/17 04:39:58;;;;;;;16.10;13.63;;;7.20;99.90;;;;;;5066276;28;20044;-81
2022/11/17 04:42:24;;;;;;;17.33;12.85;;;7.20;99.90;;;;;;5071950;28;20047;-80
2022/11/17 04:44:49;;;;;;;16.13;13.57;;;7.20;99.90;;;;;;5050538;28;20139;-81
2022/11/17 04:47:15;;;;;;;15.02;12.02;;;7.20;99.90;;;;;;5054084;28;20049;-80
2022/11/17 04:49:41;;;;;;;13.63;11.75;;;7.20;99.90;;;;;;5068895;28;20044;-81
2022/11/17 04:52:06;;;;;;;17.40;12.68;;;7.20;99.90;;;;;;5071228;28;20041;-81
2022/11/17 04:54:32;;;;;;;15.27;11.85;;;7.20;99.90;;;;;;5069917;28;20093;-81
2022/11/17 04:56:58;;;;;;;17.77;12.70;;;7.20;99.90;;;;;;5053858;28;20044;-80
2022/11/17 04:59:23;;;;;;;16.02;12.85;;;7.20;99.90;;;;;;5055326;28;20051;-81
2022/11/17 05:01:49;;;;;;;15.27;13.18;;;7.00;99.90;;;;;;5044867;28;20061;-81
2022/11/17 05:04:54;;;;;;;15.50;12.68;;;7.40;99.90;;;;;;5016934;28;20128;-81
2022/11/17 05:07:03;;;;;;;14.88;12.63;;;7.00;99.90;;;;;;5035058;28;20128;-81
2022/11/17 05:09:29;;;;;;;15.35;11.15;;;7.00;99.90;;;;;;5017660;28;20133;-81
2022/11/17 05:14:40;;;;;;;15.90;12.52;;;7.00;99.90;;;;;;5018223;28;20042;-81
2022/11/17 05:17:07;;;;;;;15.23;12.70;;;7.00;99.90;;;;;;5017938;28;20072;-81
2022/11/17 05:19:45;;;;;;;14.60;12.50;;;6.90;99.90;;;;;;5018345;28;20038;-81
2022/11/17 05:25:00;;;;;;;14.60;12.48;;;7.00;99.90;;;;;;5046827;28;20057;-81
2022/11/17 05:27:26;;;;;;;13.50;11.15;;;8.60;99.90;;;;;;5042944;28;20094;-81
2022/11/17 05:29:52;;;;;;;14.82;11.77;;;6.90;99.90;;;;;;5019924;28;20051;-81
2022/11/17 05:32:18;;;;;;;14.30;11.38;;;6.90;99.90;;;;;;5006962;28;20397;-81
2022/11/17 05:34:44;;;;;;;16.25;11.98;;;6.90;99.90;;;;;;5028902;28;20060;-81
2022/11/17 05:37:10;;;;;;;15.60;10.63;;;6.90;99.90;;;;;;5035188;28;20065;-81
2022/11/17 05:39:35;;;;;;;13.60;11.50;;;6.90;99.90;;;;;;5016701;28;20096;-81
2022/11/17 05:42:01;;;;;;;13.98;11.73;;;6.80;99.90;;;;;;5035027;28;20041;-81
2022/11/17 05:44:27;;;;;;;14.50;11.90;;;6.80;99.90;;;;;;5017609;28;20163;-81
2022/11/17 05:46:52;;;;;;;14.02;11.02;;;6.90;99.90;;;;;;5028634;28;20127;-81
2022/11/17 05:49:18;;;;;;;13.77;11.90;;;6.90;99.90;;;;;;5016724;28;20128;-80
2022/11/17 05:51:43;;;;;;;15.40;11.52;;;6.90;99.90;;;;;;5021541;28;20072;-81
2022/11/17 05:54:09;;;;;;;13.52;11.05;;;6.90;99.90;;;;;;5052677;28;20045;-81
2022/11/17 05:56:42;;;;;;;12.93;11.10;;;6.90;99.90;;;;;;5036673;28;20446;-81
2022/11/17 05:59:22;;;;;;;12.10;10.38;;;6.80;99.90;;;;;;5054066;28;20401;-81
2022/11/17 06:01:56;;;;;;;10.85;9.38;;;6.90;99.90;;;;;;5049782;28;20106;-81
2022/11/17 06:04:22;;;;;;;12.93;11.05;;;6.80;99.90;;;;;;5045911;28;20102;-81
2022/11/17 06:06:48;;;;;;;13.13;10.88;;;6.80;99.90;;;;;;5054155;28;20049;-81
2022/11/17 06:09:14;;;;;;;12.35;10.13;;;7.70;99.90;;;;;;5065397;28;20135;-81
2022/11/17 06:11:40;;;;;;;13.40;10.95;;;6.80;99.90;;;;;;5044464;28;20049;-81
2022/11/17 06:14:05;;;;;;;12.35;10.15;;;7.80;99.90;;;;;;5054263;28;20540;-81
2022/11/17 06:16:34;;;;;;;11.02;9.52;;;6.70;99.90;;;;;;5062131;28;20036;-81
2022/11/17 06:19:08;;;;;;;12.20;10.13;;;6.70;99.90;;;;;;5058551;28;20496;-81
2022/11/17 06:21:34;;;;;;;12.40;9.63;;;6.70;99.90;;;;;;5051414;28;20062;-80
2022/11/17 06:24:01;;;;;;;14.10;10.15;;;6.70;99.90;;;;;;5055731;28;20144;-80
2022/11/17 06:26:27;;;;;;;13.07;9.75;;;6.70;99.90;;;;;;5073846;28;20323;-81
2022/11/17 06:28:54;;;;;;;12.00;9.77;;;6.80;99.90;;;;;;5072912;28;20123;-80
2022/11/17 06:31:20;;;;;;;10.00;8.77;;;6.80;99.90;;;;;;5038838;28;20102;-78
2022/11/17 06:33:46;;;;;;;11.45;9.10;;;6.80;99.90;;;;;;5073464;28;20048;-80
2022/11/17 06:36:12;;;;;;;11.52;9.38;;;6.80;99.90;;;;;;5058853;28;20041;-81
2022/11/17 06:38:37;;;;;;;12.43;9.48;;;6.80;99.90;;;;;;5053532;28;20099;-81
2022/11/17 06:41:04;;;;;;;10.38;8.30;;;6.80;99.90;;;;;;5053577;28;20040;-81
2022/11/17 06:43:33;;;;;;;11.60;8.45;;;6.80;99.90;;;;;;5035246;28;20128;-80
2022/11/17 06:46:03;;;;;;;9.35;8.02;;;6.80;99.90;;;;;;5053678;28;20115;-81
2022/11/17 06:48:34;;;;;;;9.27;7.05;;;6.80;99.90;;;;;;5052641;28;20482;-81
2022/11/17 06:51:03;;;;;;;9.77;7.78;;;6.80;99.90;;;;;;5035145;28;20142;-81
2022/11/17 06:53:30;;;;;;;10.32;8.20;;;6.80;99.90;;;;;;5035144;28;20049;-81
2022/11/17 06:56:15;;;;;;;10.32;7.80;;;6.80;99.90;;;;;;5053426;28;20063;-81
2022/11/17 06:58:41;;;;;;;10.67;7.67;;;7.00;99.90;;;;;;5035312;28;20398;-81
2022/11/17 07:01:09;;;;;;;8.82;6.97;;;6.80;99.90;;;;;;5035982;28;20053;-81
2022/11/17 07:03:36;;;;;;;10.07;7.80;;;6.80;99.90;;;;;;5034584;28;20084;-81
2022/11/17 07:06:04;;;;;;;9.32;8.32;;;6.80;99.90;;;;;;5034606;28;20041;-81
2022/11/17 07:08:30;;;;;;;9.43;7.80;;;6.70;99.90;;;;;;5035248;28;20171;-81
2022/11/17 07:11:04;;;;;;;9.15;7.38;;;6.80;99.90;;;;;;5052952;28;20051;-81
2022/11/17 07:13:32;;;;;;;10.23;7.53;;;6.80;99.90;;;;;;5052729;28;20283;-81
2022/11/17 07:16:15;;;;;;;9.07;6.90;;;7.50;99.90;;;;;;5069757;28;20044;-81
2022/11/17 07:18:41;;;;;;;8.20;6.90;;;8.10;99.90;;;;;;5054504;28;20485;-81
2022/11/17 07:21:09;;;;;;;9.95;6.75;;;6.80;99.90;;;;;;5039677;28;20073;-80
2022/11/17 07:23:36;;;;;;;9.45;7.70;;;6.80;99.90;;;;;;5060592;28;20098;-80
2022/11/17 07:26:02;;;;;;;9.25;7.65;;;6.80;99.90;;;;;;5071090;28;20102;-81
2022/11/17 07:28:29;;;;;;;9.07;7.53;;;6.80;99.90;;;;;;5042913;28;20033;-80
2022/11/17 07:30:55;;;;;;;10.48;8.05;;;6.80;99.90;;;;;;5072601;28;20387;-81
2022/11/17 07:33:21;;;;;;;8.80;7.15;;;6.80;99.90;;;;;;5052322;28;20199;-81
2022/11/17 07:35:47;;;;;;;8.77;7.15;;;6.80;99.90;;;;;;5052980;28;20037;-81
2022/11/17 07:38:13;;;;;;;8.63;6.70;;;6.80;99.90;;;;;;5071916;28;20420;-81
2022/11/17 07:40:39;;;;;;;8.82;7.40;;;8.00;99.90;;;;;;5072280;28;20408;-81
2022/11/17 07:43:05;;;;;;;8.40;7.03;;;6.80;99.90;;;;;;5054237;28;20400;-80
2022/11/17 07:45:31;;;;;;;8.25;6.40;;;6.90;99.90;;;;;;5071972;28;20079;-80
2022/11/17 07:47:58;;;;;;;7.78;6.30;;;7.60;99.90;;;;;;5053852;28;20080;-80
2022/11/17 07:50:25;;;;;;;9.93;6.53;;;6.90;99.90;;;;;;5071996;28;20112;-80
2022/11/17 07:52:52;;;;;;;9.00;7.10;;;7.10;99.90;;;;;;5071333;28;20045;-82
2022/11/17 07:55:18;;;;;;;9.48;6.80;;;6.90;99.90;;;;;;5040747;28;20072;-82
2022/11/17 07:57:44;;;;;;;8.57;6.53;;;6.90;99.90;;;;;;5071395;28;20087;-82
2022/11/17 08:00:11;;;;;;;8.10;6.43;;;6.80;99.90;;;;;;5047619;28;20432;-82
2022/11/17 08:02:37;;;;;;;8.00;6.35;;;6.80;99.90;;;;;;5033822;28;20080;-82
2022/11/17 08:05:04;;;;;;;8.18;6.53;;;6.80;99.90;;;;;;5051450;28;20162;-81
2022/11/17 08:07:29;;;;;;;9.40;6.50;;;6.80;99.90;;;;;;5052285;28;20064;-83
2022/11/17 08:09:55;;;;;;;8.35;6.30;;;6.70;99.90;;;;;;5051722;28;20045;-81
2022/11/17 08:12:22;;;;;;;8.07;5.72;;;7.00;99.90;;;;;;5034335;28;20045;-81
2022/11/17 08:14:48;;;;;;;9.05;6.07;;;6.80;99.90;;;;;;5053231;28;20051;-80
2022/11/17 08:17:14;;;;;;;9.10;6.20;;;6.80;99.90;;;;;;5072246;28;20385;-81
2022/11/17 08:19:40;;;;;;;7.53;5.82;;;6.80;99.90;;;;;;5053413;28;20041;-80
2022/11/17 08:22:05;;;;;;;7.47;6.05;;;6.80;99.90;;;;;;5049113;28;20551;-81
2022/11/17 08:24:31;;;;;;;8.70;5.65;;;6.80;99.90;;;;;;5044001;28;20052;-80
2022/11/17 08:26:57;;;;;;;6.82;5.43;;;6.80;99.90;;;;;;5034010;28;20496;-81
2022/11/17 08:29:33;;;;;;;7.82;5.55;;;6.80;99.90;;;;;;5052966;28;20060;-81
2022/11/17 08:31:58;;;;;;;8.27;6.40;;;6.80;99.90;;;;;;5071743;28;20045;-81
2022/11/17 08:34:24;;;;;;;7.75;5.78;;;6.80;99.90;;;;;;5075161;28;20036;-81
2022/11/17 08:36:50;;;;;;;7.90;5.80;;;8.40;99.90;;;;;;5075922;28;20051;-81
2022/11/17 08:39:15;;;;;;;8.23;5.75;;;6.80;99.90;;;;;;5074939;28;20119;-81
2022/11/17 08:41:41;;;;;;;7.80;5.50;;;6.90;99.90;;;;;;5056197;28;20040;-82
2022/11/17 08:44:07;;;;;;;7.50;5.57;;;6.90;99.90;;;;;;5056792;28;20488;-81
2022/11/17 08:46:33;;;;;;;8.07;5.68;;;6.90;99.90;;;;;;5047661;28;20040;-85
2022/11/17 08:48:59;;;;;;;7.68;6.05;;;7.30;99.90;;;;;;5031828;28;20437;-84
2022/11/17 08:51:27;;;;;;;9.18;6.55;;;7.60;99.90;;;;;;5049210;28;20045;-86
2022/11/17 08:53:53;;;;;;;8.75;6.53;;;6.90;99.90;;;;;;5038269;28;20064;-82
2022/11/17 08:56:19;;;;;;;7.90;6.15;;;6.90;99.90;;;;;;5037759;28;20037;-82
2022/11/17 08:58:44;;;;;;;8.48;6.00;;;6.90;99.90;;;;;;5038415;28;20048;-84
2022/11/17 09:01:14;;;;;;;8.20;6.70;;;6.90;99.90;;;;;;5067790;28;20056;-83
2022/11/17 09:03:42;;;;;;;8.68;6.35;;;6.90;99.90;;;;;;5036442;28;20049;-82
2022/11/17 09:06:09;;;;;;;10.57;7.18;;;6.90;99.90;;;;;;5036163;28;20077;-81
2022/11/17 09:08:35;;;;;;;9.38;6.90;;;6.80;99.90;;;;;;5037583;28;20048;-81
2022/11/17 09:11:10;;;;;;;8.85;7.10;;;6.90;99.90;;;;;;5016673;28;20041;-81
2022/11/17 09:13:37;;;;;;;8.85;7.32;;;6.90;99.90;;;;;;5008026;28;20422;-82
2022/11/17 09:16:09;;;;;;;9.98;7.88;;;6.90;99.90;;;;;;5030696;28;20080;-81
2022/11/17 09:18:37;;;;;;;10.02;7.90;;;6.80;99.90;;;;;;5053418;28;20055;-81
2022/11/17 09:21:05;;;;;;;8.50;6.38;;;6.80;99.90;;;;;;5022923;28;20041;-81
2022/11/17 09:23:31;;;;;;;8.93;7.05;;;6.80;99.90;;;;;;5035091;28;20087;-83
2022/11/17 09:25:57;;;;;;;9.13;7.30;;;7.00;99.90;;;;;;5009458;28;20036;-83
2022/11/17 09:28:24;;;;;;;10.27;7.22;;;6.80;99.90;;;;;;5033786;28;20038;-82
2022/11/17 09:30:51;;;;;;;9.23;7.00;;;6.80;99.90;;;;;;5028214;28;20049;-82
2022/11/17 09:33:17;;;;;;;9.73;6.95;;;6.80;99.90;;;;;;5028700;28;20597;-82
2022/11/17 09:35:42;;;;;;;8.50;6.78;;;6.80;99.90;;;;;;5032366;28;20113;-81
2022/11/17 09:38:08;;;;;;;10.40;6.78;;;6.80;99.90;;;;;;5034918;28;20037;-80
2022/11/17 09:40:34;;;;;;;8.20;6.65;;;6.80;99.90;;;;;;5020037;28;20076;-81
2022/11/17 09:42:59;;;;;;;8.00;6.25;;;6.80;99.90;;;;;;5036495;28;20561;-81
2022/11/17 09:45:34;;;;;;;8.45;6.57;;;6.90;99.90;;;;;;5034645;28;20414;-81
2022/11/17 09:48:17;;;;;;;8.07;6.97;;;6.90;99.90;;;;;;5034807;28;20045;-82
2022/11/17 09:50:44;;;;;;;8.55;6.82;;;6.90;99.90;;;;;;5022281;28;20823;-82
2022/11/17 09:53:31;;;;;;;8.40;7.25;;;6.90;99.90;;;;;;5014237;28;20043;-81
2022/11/17 09:56:01;;;;;;;10.48;6.93;;;6.90;99.90;;;;;;5032429;28;20049;-81
2022/11/17 09:58:39;;;;;;;9.50;7.60;;;6.90;99.90;;;;;;5034961;28;20041;-81
2022/11/17 10:01:09;;;;;;;11.27;7.47;;;6.90;99.90;;;;;;5035188;28;20065;-82
2022/11/17 10:03:35;;;;;;;9.60;7.55;;;7.60;99.90;;;;;;5034751;28;20049;-82
2022/11/17 10:06:09;;;;;;;9.70;6.97;;;6.90;99.90;;;;;;5027684;28;20135;-82
2022/11/17 10:08:49;;;;;;;8.07;6.95;;;6.90;99.90;;;;;;5036468;28;20049;-82
2022/11/17 10:11:32;;;;;;;12.00;6.57;;;6.90;99.90;;;;;;5034778;28;20049;-81
2022/11/17 10:14:12;;;;;;;8.35;6.78;;;6.90;99.90;;;;;;5016798;28;20037;-81
2022/11/17 10:16:43;;;;;;;8.88;7.28;;;6.90;99.90;;;;;;5016994;28;20516;-80
2022/11/17 10:19:19;;;;;;;9.32;7.13;;;6.90;99.90;;;;;;5000075;28;20120;-82
2022/11/17 10:22:07;;;;;;;8.20;6.70;;;6.90;99.90;;;;;;5034125;28;20148;-81
2022/11/17 10:24:53;;;;;;;8.98;7.20;;;6.90;99.90;;;;;;4998831;28;20388;-82
2022/11/17 10:27:26;;;;;;;9.43;7.45;;;6.90;99.90;;;;;;5045529;28;20125;-81
2022/11/17 10:30:13;;;;;;;9.30;7.82;;;6.80;99.90;;;;;;5019150;28;20406;-81
2022/11/17 10:32:53;;;;;;;10.40;7.90;;;6.90;99.90;;;;;;5034773;28;20068;-80
2022/11/17 10:35:33;;;;;;;10.05;8.20;;;6.90;99.90;;;;;;5033150;28;20048;-81
2022/11/17 10:38:27;;;;;;;9.73;7.72;;;6.90;99.90;;;;;;5021323;28;20512;-80
2022/11/17 10:40:56;;;;;;;9.70;7.47;;;6.80;99.90;;;;;;5029011;28;20052;-81
2022/11/17 10:43:34;;;;;;;9.88;7.63;;;8.20;99.90;;;;;;5021330;28;20049;-81
2022/11/17 10:46:05;;;;;;;8.73;6.93;;;8.20;99.90;;;;;;5040556;28;20120;-81
2022/11/17 10:48:36;;;;;;;9.95;7.45;;;6.90;99.90;;;;;;5016233;28;20037;-81
2022/11/17 10:51:11;;;;;;;8.95;6.90;;;6.90;99.90;;;;;;5032619;28;20398;-81
2022/11/17 10:53:42;;;;;;;10.80;7.05;;;7.00;99.90;;;;;;5032316;28;20060;-81
2022/11/17 10:56:34;;;;;;;9.35;7.38;;;7.00;99.90;;;;;;5016677;28;20049;-81
2022/11/17 10:59:15;;;;;;;9.45;7.10;;;7.00;99.90;;;;;;4994176;28;20160;-81
2022/11/17 11:01:46;;;;;;;12.00;6.93;;;7.00;99.90;;;;;;5028473;28;20061;-81
2022/11/17 11:04:38;;;;;;;10.30;7.28;;;7.50;99.90;;;;;;5035543;28;20106;-81
2022/11/17 11:07:21;;;;;;;11.02;7.85;;;7.00;99.90;;;;;;5046473;28;20562;-81
2022/11/17 11:09:59;;;;;;;9.43;7.10;;;6.90;99.90;;;;;;5034322;28;20135;-81
2022/11/17 11:12:38;;;;;;;10.73;7.88;;;7.00;99.90;;;;;;5035438;28;20410;-82
2022/11/17 11:15:08;;;;;;;12.25;7.85;;;6.90;99.90;;;;;;5053039;28;20121;-81
2022/11/17 11:17:33;;;;;;;9.93;7.50;;;6.90;99.90;;;;;;5034954;28;20049;-82
2022/11/17 11:19:59;;;;;;;14.57;8.07;;;6.80;99.90;;;;;;5054054;28;20055;-81
2022/11/17 11:22:39;;;;;;;10.82;8.05;;;6.80;99.90;;;;;;5035171;28;20426;-81
2022/11/17 11:25:26;;;;;;;10.30;7.82;;;6.80;99.90;;;;;;5039186;28;20076;-83
2022/11/17 11:28:00;;;;;;;12.05;8.30;;;6.80;99.90;;;;;;5037535;28;20083;-84
2022/11/17 11:30:26;;;;;;;13.52;9.15;;;7.80;99.90;;;;;;5018285;28;20094;-82
2022/11/17 11:33:20;;;;;;;10.98;8.45;;;6.80;99.90;;;;;;5019292;28;20501;-82
2022/11/17 11:35:54;;;;;;;12.65;9.32;;;6.80;99.90;;;;;;5053950;28;20040;-83
2022/11/17 11:38:34;;;;;;;14.30;8.90;;;6.80;99.90;;;;;;5035678;28;20037;-83
2022/11/17 11:41:18;;;;;;;14.75;9.48;;;6.80;99.90;;;;;;5052575;28;20107;-81
2022/11/17 11:44:08;;;;;;;11.90;8.88;;;6.80;99.90;;;;;;5033998;28;20159;-83
2022/11/17 11:47:03;;;;;;;11.50;9.43;;;6.80;99.90;;;;;;5052909;28;20044;-83
2022/11/17 11:49:41;;;;;;;12.70;9.63;;;6.80;99.90;;;;;;5052857;28;20128;-82
2022/11/17 11:52:15;;;;;;;12.30;10.38;;;6.80;99.90;;;;;;5034368;28;20132;-82
2022/11/17 11:55:04;;;;;;;13.80;10.00;;;6.80;99.90;;;;;;5017457;28;20474;-82
2022/11/17 11:57:35;;;;;;;12.32;9.38;;;6.80;99.90;;;;;;5034684;28;20382;-81
2022/11/17 12:00:05;;;;;;;12.25;10.07;;;6.80;99.90;;;;;;5051913;28;20524;-82
2022/11/17 12:02:42;;;;;;;12.45;10.00;;;6.80;99.90;;;;;;5034164;28;20092;-82
2022/11/17 12:05:17;;;;;;;13.30;10.45;;;6.80;99.90;;;;;;5051768;28;20346;-82
2022/11/17 12:07:49;;;;;;;14.40;10.45;;;6.90;99.90;;;;;;5017431;28;20056;-82
2022/11/17 12:10:31;;;;;;;12.27;10.43;;;6.90;99.90;;;;;;5052102;28;20371;-82
2022/11/17 12:12:57;;;;;;;11.98;9.82;;;6.90;99.90;;;;;;5053289;28;20054;-82
2022/11/17 12:15:23;;;;;;;16.92;11.15;;;7.00;99.90;;;;;;5054545;28;20059;-82
2022/11/17 12:18:02;;;;;;;13.68;10.10;;;6.90;99.90;;;;;;5054782;28;20041;-82
2022/11/17 12:20:37;;;;;;;14.90;11.40;;;6.90;99.90;;;;;;5054477;28;20041;-83
2022/11/17 12:23:21;;;;;;;14.25;10.80;;;6.90;99.90;;;;;;5053437;28;20041;-82
2022/11/17 12:25:49;;;;;;;15.23;11.20;;;6.90;99.90;;;;;;5050783;28;20045;-82
2022/11/17 12:28:40;;;;;;;17.17;12.48;;;7.00;99.90;;;;;;5051090;28;20041;-82
2022/11/17 12:31:11;;;;;;;14.63;10.98;;;6.90;99.90;;;;;;5052172;28;20044;-82
2022/11/17 12:33:52;;;;;;;14.07;11.05;;;7.00;99.90;;;;;;5017336;28;20056;-82
2022/11/17 12:36:26;;;;;;;12.45;9.65;;;7.00;99.90;;;;;;5035092;28;20504;-82
2022/11/17 12:38:56;;;;;;;13.35;10.40;;;7.20;99.90;;;;;;5034184;28;20379;-82
2022/11/17 12:41:46;;;;;;;11.73;9.35;;;7.00;99.90;;;;;;5035019;28;20041;-82
2022/11/17 12:44:31;;;;;;;13.05;9.25;;;7.00;99.90;;;;;;5051633;28;20047;-82
2022/11/17 12:47:20;;;;;;;12.00;9.38;;;7.00;99.90;;;;;;5033935;28;20116;-82
2022/11/17 12:50:04;;;;;;;11.18;8.98;;;7.00;99.90;;;;;;5051197;28;20103;-82
2022/11/17 12:52:36;;;;;;;15.27;9.50;;;7.00;99.90;;;;;;5033738;28;20053;-82
2022/11/17 12:55:27;;;;;;;11.75;9.38;;;6.90;99.90;;;;;;5052087;28;20077;-83
2022/11/17 12:58:23;;;;;;;13.20;9.85;;;6.90;99.90;;;;;;5052353;28;20126;-82
2022/11/17 13:01:12;;;;;;;12.32;8.60;;;6.90;99.90;;;;;;5037682;28;20056;-83
2022/11/17 13:03:41;;;;;;;11.57;8.52;;;7.00;99.90;;;;;;5050046;28;20041;-82
2022/11/17 13:06:09;;;;;;;12.30;9.00;;;7.00;99.90;;;;;;5050882;28;20049;-82
2022/11/17 13:08:35;;;;;;;11.30;9.45;;;6.90;99.90;;;;;;5052743;28;20041;-82
2022/11/17 13:11:10;;;;;;;14.05;9.70;;;7.00;99.90;;;;;;5033707;28;20057;-82
2022/11/17 13:13:36;;;;;;;15.23;10.25;;;7.00;99.90;;;;;;5051340;28;20083;-83
2022/11/17 13:16:03;;;;;;;14.88;10.60;;;7.00;99.90;;;;;;5017433;28;20508;-82
2022/11/17 13:18:37;;;;;;;15.98;10.35;;;7.00;99.90;;;;;;5050956;28;20048;-82
2022/11/17 13:21:13;;;;;;;14.75;10.77;;;7.10;99.90;;;;;;5053686;28;20456;-81
2022/11/17 13:23:43;;;;;;;15.00;10.50;;;7.10;99.90;;;;;;5054345;28;20037;-81
2022/11/17 13:26:18;;;;;;;16.02;11.75;;;7.20;99.90;;;;;;5056112;28;20370;-81
2022/11/17 13:28:44;;;;;;;17.97;12.23;;;7.20;99.90;;;;;;5037109;28;20048;-81
2022/11/17 13:31:22;;;;;;;18.45;11.55;;;7.20;99.90;;;;;;5055263;28;20373;-81
2022/11/17 13:34:17;;;;;;;16.20;11.05;;;7.30;99.90;;;;;;5054397;28;20037;-81
2022/11/17 13:36:56;;;;;;;17.00;11.95;;;7.30;99.90;;;;;;5055611;28;20055;-81